createdAt,value
2017-03-20T00:00:30.921Z,62.2
2017-03-20T00:01:32.985Z,62.1
2017-03-20T00:02:35.050Z,62.1
2017-03-20T00:03:37.117Z,62.1
2017-03-20T00:04:39.172Z,62.1
2017-03-20T00:05:41.243Z,62.1
2017-03-20T00:06:43.310Z,62.1
2017-03-20T00:07:45.373Z,62.1
2017-03-20T00:08:47.431Z,62.1
2017-03-20T00:09:49.508Z,62.1
2017-03-20T00:10:51.574Z,62.2
2017-03-20T00:11:53.628Z,62.1
2017-03-20T00:12:55.673Z,62.1
2017-03-20T00:13:57.753Z,62.1
2017-03-20T00:14:59.908Z,62.1
2017-03-20T00:16:01.884Z,62.1
2017-03-20T00:17:03.944Z,62.1
2017-03-20T00:18:06.016Z,62.1
2017-03-20T00:19:08.075Z,62.1
2017-03-20T00:20:10.152Z,62.1
2017-03-20T00:21:12.305Z,62.1
2017-03-20T00:22:14.288Z,62.1
2017-03-20T00:23:16.339Z,62.1
2017-03-20T00:24:18.407Z,62
2017-03-20T00:25:20.475Z,62
2017-03-20T00:26:22.547Z,62
2017-03-20T00:27:24.600Z,62
2017-03-20T00:28:26.675Z,62
2017-03-20T00:29:28.734Z,62
2017-03-20T00:30:30.807Z,62
2017-03-20T00:31:32.875Z,62
2017-03-20T00:32:34.941Z,62
2017-03-20T00:33:36.998Z,61.9
2017-03-20T00:34:39.070Z,62
2017-03-20T00:35:41.127Z,62
2017-03-20T00:36:43.199Z,61.9
2017-03-20T00:37:45.248Z,61.9
2017-03-20T00:38:47.307Z,61.9
2017-03-20T00:39:49.369Z,61.9
2017-03-20T00:40:51.428Z,61.9
2017-03-20T00:41:53.503Z,61.9
2017-03-20T00:42:55.591Z,61.9
2017-03-20T00:43:57.636Z,61.9
2017-03-20T00:44:59.717Z,61.9
2017-03-20T00:46:01.769Z,61.9
2017-03-20T00:47:03.834Z,61.8
2017-03-20T00:48:05.905Z,61.8
2017-03-20T00:49:07.961Z,61.8
2017-03-20T00:50:10.043Z,61.8
2017-03-20T00:51:12.104Z,61.8
2017-03-20T00:52:14.164Z,61.8
2017-03-20T00:53:16.226Z,61.8
2017-03-20T00:54:18.281Z,61.8
2017-03-20T00:55:20.358Z,61.8
2017-03-20T00:56:22.418Z,61.8
2017-03-20T00:57:24.507Z,61.8
2017-03-20T00:58:26.553Z,61.8
2017-03-20T00:59:28.622Z,61.8
2017-03-20T01:00:30.680Z,61.8
2017-03-20T01:01:32.741Z,61.7
2017-03-20T01:02:34.806Z,61.8
2017-03-20T01:03:36.856Z,61.7
2017-03-20T01:04:38.924Z,61.7
2017-03-20T01:05:41.031Z,61.7
2017-03-20T01:06:43.043Z,61.7
2017-03-20T01:07:45.106Z,61.7
2017-03-20T01:08:47.173Z,61.7
2017-03-20T01:09:49.239Z,61.7
2017-03-20T01:10:51.299Z,61.8
2017-03-20T01:11:53.362Z,61.7
2017-03-20T01:12:55.419Z,61.7
2017-03-20T01:13:57.476Z,61.7
2017-03-20T01:14:59.542Z,61.7
2017-03-20T01:16:01.635Z,61.7
2017-03-20T01:17:03.678Z,61.7
2017-03-20T01:18:05.742Z,61.7
2017-03-20T01:19:07.803Z,61.7
2017-03-20T01:20:10.216Z,61.7
2017-03-20T01:21:11.941Z,61.7
2017-03-20T01:22:14.007Z,61.7
2017-03-20T01:23:16.062Z,61.7
2017-03-20T01:24:18.123Z,61.7
2017-03-20T01:25:20.190Z,61.7
2017-03-20T01:26:22.254Z,61.7
2017-03-20T01:27:24.284Z,61.7
2017-03-20T01:28:26.344Z,61.7
2017-03-20T01:29:28.404Z,61.7
2017-03-20T01:30:30.475Z,61.7
2017-03-20T01:31:32.520Z,61.7
2017-03-20T01:32:34.578Z,61.7
2017-03-20T01:33:36.634Z,61.7
2017-03-20T01:34:38.713Z,61.7
2017-03-20T01:35:40.774Z,61.7
2017-03-20T01:36:42.849Z,61.7
2017-03-20T01:37:44.905Z,61.7
2017-03-20T01:38:46.968Z,61.7
2017-03-20T01:39:49.025Z,61.7
2017-03-20T01:40:51.080Z,61.7
2017-03-20T01:41:53.145Z,61.7
2017-03-20T01:42:55.220Z,61.7
2017-03-20T01:43:57.278Z,61.7
2017-03-20T01:44:59.343Z,61.7
2017-03-20T01:46:01.406Z,61.7
2017-03-20T01:47:03.473Z,61.7
2017-03-20T01:48:05.542Z,61.7
2017-03-20T01:49:07.593Z,61.7
2017-03-20T01:50:09.671Z,61.7
2017-03-20T01:51:11.721Z,61.7
2017-03-20T01:52:13.796Z,61.7
2017-03-20T01:53:15.841Z,61.7
2017-03-20T01:54:17.918Z,61.7
2017-03-20T01:55:19.985Z,61.7
2017-03-20T01:56:22.040Z,61.7
2017-03-20T01:57:24.101Z,61.7
2017-03-20T01:58:26.160Z,61.7
2017-03-20T01:59:28.231Z,61.7
2017-03-20T02:00:30.285Z,61.7
2017-03-20T02:01:32.351Z,61.7
2017-03-20T02:02:34.424Z,61.7
2017-03-20T02:03:36.491Z,61.7
2017-03-20T02:04:38.562Z,61.7
2017-03-20T02:05:40.620Z,61.7
2017-03-20T02:06:42.687Z,61.7
2017-03-20T02:07:44.742Z,61.7
2017-03-20T02:08:46.803Z,61.7
2017-03-20T02:09:48.862Z,61.7
2017-03-20T02:10:50.925Z,61.7
2017-03-20T02:11:52.993Z,61.7
2017-03-20T02:12:55.048Z,61.7
2017-03-20T02:13:57.115Z,61.7
2017-03-20T02:14:59.170Z,61.7
2017-03-20T02:16:01.233Z,61.7
2017-03-20T02:17:03.288Z,61.7
2017-03-20T02:18:05.355Z,61.7
2017-03-20T02:19:07.423Z,61.7
2017-03-20T02:20:09.488Z,61.7
2017-03-20T02:21:11.543Z,61.7
2017-03-20T02:22:13.596Z,61.7
2017-03-20T02:23:15.660Z,61.7
2017-03-20T02:24:17.712Z,61.7
2017-03-20T02:25:19.776Z,61.7
2017-03-20T02:26:21.834Z,61.7
2017-03-20T02:27:23.891Z,61.7
2017-03-20T02:28:25.944Z,61.7
2017-03-20T02:29:27.999Z,61.7
2017-03-20T02:30:30.064Z,61.7
2017-03-20T02:31:32.115Z,61.7
2017-03-20T02:32:34.188Z,61.7
2017-03-20T02:33:36.267Z,61.7
2017-03-20T02:34:38.322Z,61.7
2017-03-20T02:35:40.390Z,61.7
2017-03-20T02:36:42.456Z,61.7
2017-03-20T02:37:44.514Z,61.7
2017-03-20T02:38:46.582Z,61.7
2017-03-20T02:39:48.656Z,61.7
2017-03-20T02:40:50.709Z,61.7
2017-03-20T02:41:52.766Z,61.7
2017-03-20T02:42:54.831Z,61.7
2017-03-20T02:43:56.960Z,61.7
2017-03-20T02:44:58.940Z,61.7
2017-03-20T02:46:00.999Z,61.7
2017-03-20T02:47:03.051Z,61.7
2017-03-20T02:48:05.108Z,61.7
2017-03-20T02:49:07.167Z,61.7
2017-03-20T02:50:09.246Z,61.7
2017-03-20T02:51:11.291Z,61.7
2017-03-20T02:52:13.375Z,61.7
2017-03-20T02:53:15.413Z,61.7
2017-03-20T02:54:17.480Z,61.8
2017-03-20T02:55:19.543Z,61.8
2017-03-20T02:56:21.609Z,61.8
2017-03-20T02:57:23.653Z,61.8
2017-03-20T02:58:25.722Z,61.8
2017-03-20T02:59:27.776Z,61.8
2017-03-20T03:00:29.841Z,61.8
2017-03-20T03:01:31.908Z,61.8
2017-03-20T03:02:33.962Z,61.8
2017-03-20T03:03:36.163Z,61.8
2017-03-20T03:04:38.084Z,61.8
2017-03-20T03:05:40.149Z,61.8
2017-03-20T03:06:42.215Z,61.8
2017-03-20T03:07:44.284Z,61.8
2017-03-20T03:08:46.342Z,61.8
2017-03-20T03:09:48.411Z,61.8
2017-03-20T03:10:50.465Z,61.8
2017-03-20T03:11:52.537Z,61.8
2017-03-20T03:12:54.601Z,61.8
2017-03-20T03:13:56.667Z,61.8
2017-03-20T03:14:58.727Z,61.8
2017-03-20T03:16:00.790Z,61.7
2017-03-20T03:17:02.848Z,61.7
2017-03-20T03:18:04.907Z,61.7
2017-03-20T03:19:06.971Z,61.7
2017-03-20T03:20:09.038Z,61.7
2017-03-20T03:21:11.106Z,61.7
2017-03-20T03:22:13.167Z,61.7
2017-03-20T03:23:15.237Z,61.7
2017-03-20T03:24:17.291Z,61.7
2017-03-20T03:25:19.351Z,61.7
2017-03-20T03:26:21.408Z,61.7
2017-03-20T03:27:23.481Z,61.7
2017-03-20T03:28:25.537Z,61.7
2017-03-20T03:29:27.620Z,61.7
2017-03-20T03:30:29.671Z,61.7
2017-03-20T03:31:31.722Z,61.7
2017-03-20T03:32:33.781Z,61.7
2017-03-20T03:33:35.846Z,61.7
2017-03-20T03:34:37.909Z,61.7
2017-03-20T03:35:39.982Z,61.7
2017-03-20T03:36:42.041Z,61.7
2017-03-20T03:37:44.109Z,61.7
2017-03-20T03:38:46.173Z,61.6
2017-03-20T03:39:48.232Z,61.6
2017-03-20T03:40:50.291Z,61.7
2017-03-20T03:41:52.356Z,61.6
2017-03-20T03:42:54.421Z,61.6
2017-03-20T03:43:56.487Z,61.6
2017-03-20T03:44:58.523Z,61.6
2017-03-20T03:46:00.585Z,61.6
2017-03-20T03:47:02.652Z,61.6
2017-03-20T03:48:04.699Z,61.6
2017-03-20T03:49:06.762Z,61.6
2017-03-20T03:50:08.822Z,61.6
2017-03-20T03:51:10.883Z,61.6
2017-03-20T03:52:12.949Z,61.6
2017-03-20T03:53:15.013Z,61.6
2017-03-20T03:54:17.078Z,61.6
2017-03-20T03:55:19.136Z,61.6
2017-03-20T03:56:21.203Z,61.6
2017-03-20T03:57:23.261Z,61.6
2017-03-20T03:58:25.322Z,61.6
2017-03-20T03:59:27.390Z,61.5
2017-03-20T04:00:29.448Z,61.6
2017-03-20T04:01:31.526Z,61.5
2017-03-20T04:02:33.597Z,61.5
2017-03-20T04:03:35.654Z,61.5
2017-03-20T04:04:37.716Z,61.5
2017-03-20T04:05:39.777Z,61.5
2017-03-20T04:06:41.846Z,61.5
2017-03-20T04:07:43.906Z,61.5
2017-03-20T04:08:45.967Z,61.5
2017-03-20T04:09:48.038Z,61.5
2017-03-20T04:10:50.097Z,61.5
2017-03-20T04:11:52.156Z,61.5
2017-03-20T04:12:54.232Z,61.5
2017-03-20T04:13:56.299Z,61.5
2017-03-20T04:14:58.359Z,61.5
2017-03-20T04:16:00.423Z,61.5
2017-03-20T04:17:02.487Z,61.4
2017-03-20T04:18:04.541Z,61.4
2017-03-20T04:19:06.609Z,61.4
2017-03-20T04:20:08.672Z,61.4
2017-03-20T04:21:10.709Z,61.4
2017-03-20T04:22:12.780Z,61.4
2017-03-20T04:23:14.841Z,61.4
2017-03-20T04:24:16.912Z,61.4
2017-03-20T04:25:18.983Z,61.4
2017-03-20T04:26:21.026Z,61.4
2017-03-20T04:27:23.083Z,61.4
2017-03-20T04:28:25.147Z,61.3
2017-03-20T04:29:27.207Z,61.3
2017-03-20T04:30:29.265Z,61.3
2017-03-20T04:31:31.318Z,61.3
2017-03-20T04:32:33.381Z,61.3
2017-03-20T04:33:35.442Z,61.3
2017-03-20T04:34:37.511Z,61.3
2017-03-20T04:35:39.584Z,61.3
2017-03-20T04:36:41.648Z,61.3
2017-03-20T04:37:43.714Z,61.3
2017-03-20T04:38:45.772Z,61.3
2017-03-20T04:39:47.840Z,61.3
2017-03-20T04:40:49.916Z,61.3
2017-03-20T04:41:51.974Z,61.2
2017-03-20T04:42:54.026Z,61.2
2017-03-20T04:43:56.085Z,61.2
2017-03-20T04:44:58.147Z,61.2
2017-03-20T04:46:00.200Z,61.2
2017-03-20T04:47:02.265Z,61.2
2017-03-20T04:48:04.434Z,61.2
2017-03-20T04:49:06.396Z,61.2
2017-03-20T04:50:08.559Z,61.2
2017-03-20T04:51:10.527Z,61.2
2017-03-20T04:52:12.578Z,61.1
2017-03-20T04:53:14.657Z,61.1
2017-03-20T04:54:16.711Z,61.1
2017-03-20T04:55:18.769Z,61.1
2017-03-20T04:56:20.836Z,61.1
2017-03-20T04:57:22.891Z,61.1
2017-03-20T04:58:24.945Z,61.1
2017-03-20T04:59:27.006Z,61.1
2017-03-20T05:00:29.119Z,61.1
2017-03-20T05:01:31.225Z,61.1
2017-03-20T05:02:33.206Z,61
2017-03-20T05:03:35.259Z,61
2017-03-20T05:04:37.320Z,61
2017-03-20T05:05:39.399Z,61
2017-03-20T05:06:41.450Z,61
2017-03-20T05:07:43.510Z,61
2017-03-20T05:08:45.579Z,61
2017-03-20T05:09:47.630Z,61
2017-03-20T05:10:49.676Z,61
2017-03-20T05:11:51.741Z,61
2017-03-20T05:12:53.801Z,61
2017-03-20T05:13:55.865Z,61
2017-03-20T05:14:57.929Z,61
2017-03-20T05:15:59.993Z,61
2017-03-20T05:17:02.052Z,61
2017-03-20T05:18:04.116Z,60.9
2017-03-20T05:19:06.154Z,60.9
2017-03-20T05:20:08.221Z,60.9
2017-03-20T05:21:10.273Z,60.9
2017-03-20T05:22:12.323Z,60.9
2017-03-20T05:23:14.373Z,60.9
2017-03-20T05:24:16.431Z,60.9
2017-03-20T05:25:18.494Z,60.9
2017-03-20T05:26:20.548Z,60.9
2017-03-20T05:27:22.606Z,60.9
2017-03-20T05:28:24.662Z,60.9
2017-03-20T05:29:26.723Z,60.9
2017-03-20T05:30:28.785Z,60.9
2017-03-20T05:31:30.853Z,60.9
2017-03-20T05:32:32.904Z,60.9
2017-03-20T05:33:34.960Z,60.9
2017-03-20T05:34:37.019Z,60.9
2017-03-20T05:35:39.087Z,60.9
2017-03-20T05:36:41.156Z,60.9
2017-03-20T05:37:43.217Z,60.9
2017-03-20T05:38:45.277Z,60.9
2017-03-20T05:39:47.348Z,60.9
2017-03-20T05:40:49.427Z,60.9
2017-03-20T05:41:51.467Z,60.9
2017-03-20T05:42:53.562Z,60.9
2017-03-20T05:43:55.589Z,60.9
2017-03-20T05:44:57.654Z,60.9
2017-03-20T05:45:59.713Z,60.9
2017-03-20T05:47:01.774Z,60.9
2017-03-20T05:48:03.839Z,60.9
2017-03-20T05:49:05.899Z,60.9
2017-03-20T05:50:07.961Z,60.9
2017-03-20T05:51:10.024Z,60.9
2017-03-20T05:52:12.090Z,60.9
2017-03-20T05:53:14.155Z,60.9
2017-03-20T05:54:16.216Z,60.9
2017-03-20T05:55:18.275Z,60.9
2017-03-20T05:56:20.341Z,60.9
2017-03-20T05:57:22.403Z,60.9
2017-03-20T05:58:24.466Z,60.9
2017-03-20T05:59:26.532Z,60.9
2017-03-20T06:00:28.594Z,60.9
2017-03-20T06:01:30.657Z,60.9
2017-03-20T06:02:32.726Z,60.9
2017-03-20T06:03:34.783Z,60.9
2017-03-20T06:04:36.846Z,60.9
2017-03-20T06:05:38.913Z,60.9
2017-03-20T06:06:40.972Z,60.9
2017-03-20T06:07:43.034Z,60.9
2017-03-20T06:08:45.103Z,60.9
2017-03-20T06:09:47.163Z,60.9
2017-03-20T06:10:49.225Z,60.9
2017-03-20T06:11:51.286Z,60.9
2017-03-20T06:12:53.354Z,60.9
2017-03-20T06:13:55.416Z,60.9
2017-03-20T06:14:57.470Z,60.9
2017-03-20T06:15:59.536Z,60.9
2017-03-20T06:17:01.601Z,60.9
2017-03-20T06:18:03.658Z,60.9
2017-03-20T06:19:05.724Z,60.9
2017-03-20T06:20:07.786Z,60.9
2017-03-20T06:21:09.850Z,60.9
2017-03-20T06:22:11.906Z,60.9
2017-03-20T06:23:13.979Z,60.9
2017-03-20T06:24:16.037Z,60.9
2017-03-20T06:25:18.091Z,60.9
2017-03-20T06:26:20.158Z,60.9
2017-03-20T06:27:22.224Z,60.9
2017-03-20T06:28:24.279Z,60.9
2017-03-20T06:29:26.344Z,60.9
2017-03-20T06:30:28.378Z,60.9
2017-03-20T06:31:30.447Z,60.9
2017-03-20T06:32:32.514Z,60.9
2017-03-20T06:33:34.566Z,60.9
2017-03-20T06:34:36.641Z,60.9
2017-03-20T06:35:38.691Z,60.9
2017-03-20T06:36:40.753Z,60.9
2017-03-20T06:37:42.813Z,60.9
2017-03-20T06:38:44.870Z,61
2017-03-20T06:39:46.935Z,61
2017-03-20T06:40:48.989Z,61
2017-03-20T06:41:51.052Z,61
2017-03-20T06:42:53.112Z,61
2017-03-20T06:43:55.182Z,61
2017-03-20T06:44:57.247Z,61
2017-03-20T06:45:59.311Z,61
2017-03-20T06:47:01.378Z,60.9
2017-03-20T06:48:03.435Z,61
2017-03-20T06:49:05.495Z,61
2017-03-20T06:50:07.560Z,61
2017-03-20T06:51:09.622Z,60.9
2017-03-20T06:52:11.677Z,61
2017-03-20T06:53:13.744Z,61
2017-03-20T06:54:15.794Z,60.9
2017-03-20T06:55:17.854Z,60.9
2017-03-20T06:56:19.912Z,60.9
2017-03-20T06:57:21.972Z,60.9
2017-03-20T06:58:24.025Z,60.9
2017-03-20T06:59:26.096Z,60.9
2017-03-20T07:00:28.176Z,60.9
2017-03-20T07:01:30.230Z,60.9
2017-03-20T07:02:32.288Z,60.9
2017-03-20T07:03:34.351Z,60.9
2017-03-20T07:04:36.416Z,60.9
2017-03-20T07:05:38.481Z,60.9
2017-03-20T07:06:40.538Z,60.9
2017-03-20T07:07:42.613Z,60.9
2017-03-20T07:08:44.669Z,60.9
2017-03-20T07:09:46.727Z,60.9
2017-03-20T07:10:48.790Z,60.9
2017-03-20T07:11:50.850Z,60.9
2017-03-20T07:12:52.908Z,60.8
2017-03-20T07:13:54.977Z,60.8
2017-03-20T07:14:57.033Z,60.8
2017-03-20T07:15:59.089Z,60.8
2017-03-20T07:17:01.151Z,60.8
2017-03-20T07:18:03.207Z,60.8
2017-03-20T07:19:05.278Z,60.8
2017-03-20T07:20:07.339Z,60.7
2017-03-20T07:21:09.390Z,60.7
2017-03-20T07:22:11.451Z,60.7
2017-03-20T07:23:13.509Z,60.6
2017-03-20T07:24:15.571Z,60.6
2017-03-20T07:25:17.630Z,60.5
2017-03-20T07:26:19.691Z,60.5
2017-03-20T07:27:21.752Z,60.5
2017-03-20T07:28:23.814Z,60.5
2017-03-20T07:29:25.870Z,60.5
2017-03-20T07:30:27.939Z,60.5
2017-03-20T07:31:30.003Z,60.5
2017-03-20T07:32:32.067Z,60.5
2017-03-20T07:33:34.126Z,60.4
2017-03-20T07:34:36.185Z,60.4
2017-03-20T07:35:38.229Z,60.4
2017-03-20T07:36:40.292Z,60.4
2017-03-20T07:37:42.357Z,60.4
2017-03-20T07:38:44.410Z,60.3
2017-03-20T07:39:46.485Z,60.3
2017-03-20T07:40:48.543Z,60.3
2017-03-20T07:41:50.601Z,60.3
2017-03-20T07:42:52.669Z,60.3
2017-03-20T07:43:54.730Z,60.3
2017-03-20T07:44:56.782Z,60.3
2017-03-20T07:45:58.851Z,60.3
2017-03-20T07:47:00.914Z,60.3
2017-03-20T07:48:02.969Z,60.3
2017-03-20T07:49:05.034Z,60.3
2017-03-20T07:50:07.112Z,60.3
2017-03-20T07:51:09.155Z,60.3
2017-03-20T07:52:11.216Z,60.4
2017-03-20T07:53:13.268Z,60.4
2017-03-20T07:54:15.330Z,60.5
2017-03-20T07:55:17.396Z,60.5
2017-03-20T07:56:19.474Z,60.4
2017-03-20T07:57:21.515Z,60.4
2017-03-20T07:58:23.562Z,60.4
2017-03-20T07:59:25.635Z,60.4
2017-03-20T08:00:27.695Z,60.4
2017-03-20T08:01:29.747Z,60.4
2017-03-20T08:02:31.807Z,60.4
2017-03-20T08:03:33.867Z,60.4
2017-03-20T08:04:35.938Z,60.4
2017-03-20T08:05:38.004Z,60.4
2017-03-20T08:06:40.056Z,60.3
2017-03-20T08:07:42.120Z,60.3
2017-03-20T08:08:44.188Z,60.3
2017-03-20T08:09:46.252Z,60.3
2017-03-20T08:10:48.302Z,60.3
2017-03-20T08:11:50.361Z,60.3
2017-03-20T08:12:52.430Z,60.2
2017-03-20T08:13:54.494Z,60.2
2017-03-20T08:14:56.560Z,60.2
2017-03-20T08:15:58.625Z,60.2
2017-03-20T08:17:00.691Z,60.2
2017-03-20T08:18:02.700Z,60.1
2017-03-20T08:19:04.772Z,60.1
2017-03-20T08:20:06.827Z,60.1
2017-03-20T08:21:08.932Z,60.1
2017-03-20T08:22:10.940Z,60.1
2017-03-20T08:23:13.011Z,60.1
2017-03-20T08:24:15.060Z,60.1
2017-03-20T08:25:17.136Z,60
2017-03-20T08:26:19.192Z,60
2017-03-20T08:27:21.252Z,60
2017-03-20T08:28:23.297Z,60
2017-03-20T08:29:25.352Z,60
2017-03-20T08:30:27.409Z,60
2017-03-20T08:31:29.476Z,59.9
2017-03-20T08:32:31.526Z,59.9
2017-03-20T08:33:33.592Z,59.9
2017-03-20T08:34:35.652Z,59.9
2017-03-20T08:35:37.707Z,59.9
2017-03-20T08:36:39.763Z,59.9
2017-03-20T08:37:41.822Z,59.8
2017-03-20T08:38:43.873Z,59.8
2017-03-20T08:39:45.951Z,59.8
2017-03-20T08:40:48.007Z,59.8
2017-03-20T08:41:50.069Z,59.8
2017-03-20T08:42:52.122Z,59.8
2017-03-20T08:43:54.163Z,59.8
2017-03-20T08:44:56.218Z,59.8
2017-03-20T08:45:58.286Z,59.8
2017-03-20T08:47:00.349Z,59.8
2017-03-20T08:48:02.384Z,59.8
2017-03-20T08:49:04.446Z,59.8
2017-03-20T08:50:06.518Z,59.8
2017-03-20T08:51:08.587Z,59.8
2017-03-20T08:52:10.647Z,59.7
2017-03-20T08:53:12.725Z,59.7
2017-03-20T08:54:14.758Z,59.7
2017-03-20T08:55:16.825Z,59.7
2017-03-20T08:56:18.864Z,59.7
2017-03-20T08:57:20.902Z,59.7
2017-03-20T08:58:22.948Z,59.6
2017-03-20T08:59:25.039Z,59.6
2017-03-20T09:00:27.024Z,59.6
2017-03-20T09:01:29.064Z,59.6
2017-03-20T09:02:31.111Z,59.6
2017-03-20T09:03:33.155Z,59.5
2017-03-20T09:04:35.203Z,59.5
2017-03-20T09:05:37.252Z,59.5
2017-03-20T09:06:39.297Z,59.5
2017-03-20T09:07:41.351Z,59.5
2017-03-20T09:08:43.462Z,59.5
2017-03-20T09:09:45.450Z,59.5
2017-03-20T09:10:47.496Z,59.5
2017-03-20T09:11:49.546Z,59.4
2017-03-20T09:12:51.606Z,59.4
2017-03-20T09:13:53.658Z,59.4
2017-03-20T09:14:55.828Z,59.4
2017-03-20T09:15:57.770Z,59.4
2017-03-20T09:16:59.820Z,59.4
2017-03-20T09:18:01.878Z,59.4
2017-03-20T09:19:03.941Z,59.4
2017-03-20T09:20:06.013Z,59.4
2017-03-20T09:21:08.055Z,59.4
2017-03-20T09:22:10.108Z,59.4
2017-03-20T09:23:12.168Z,59.4
2017-03-20T09:24:14.228Z,59.4
2017-03-20T09:25:16.290Z,59.4
2017-03-20T09:26:18.350Z,59.4
2017-03-20T09:27:20.412Z,59.4
2017-03-20T09:28:22.470Z,59.4
2017-03-20T09:29:24.525Z,59.4
2017-03-20T09:30:26.587Z,59.4
2017-03-20T09:31:28.652Z,59.4
2017-03-20T09:32:30.713Z,59.4
2017-03-20T09:33:32.771Z,59.4
2017-03-20T09:34:34.818Z,59.4
2017-03-20T09:35:36.879Z,59.4
2017-03-20T09:36:38.944Z,59.4
2017-03-20T09:37:41.024Z,59.4
2017-03-20T09:38:43.052Z,59.4
2017-03-20T09:39:45.117Z,59.4
2017-03-20T09:40:47.171Z,59.4
2017-03-20T09:41:49.237Z,59.4
2017-03-20T09:42:51.290Z,59.4
2017-03-20T09:43:53.357Z,59.4
2017-03-20T09:44:55.414Z,59.4
2017-03-20T09:45:57.476Z,59.4
2017-03-20T09:46:59.532Z,59.4
2017-03-20T09:48:01.592Z,59.4
2017-03-20T09:49:03.663Z,59.4
2017-03-20T09:50:05.721Z,59.4
2017-03-20T09:51:07.776Z,59.4
2017-03-20T09:52:09.962Z,59.4
2017-03-20T09:53:11.893Z,59.4
2017-03-20T09:54:13.964Z,59.4
2017-03-20T09:55:16.015Z,59.4
2017-03-20T09:56:18.066Z,59.4
2017-03-20T09:57:20.119Z,59.4
2017-03-20T09:58:22.176Z,59.4
2017-03-20T09:59:24.241Z,59.4
2017-03-20T10:00:26.295Z,59.4
2017-03-20T10:01:28.354Z,59.4
2017-03-20T10:02:30.416Z,59.4
2017-03-20T10:03:32.487Z,59.5
2017-03-20T10:04:34.529Z,59.4
2017-03-20T10:05:36.589Z,59.4
2017-03-20T10:06:38.658Z,59.4
2017-03-20T10:07:40.726Z,59.4
2017-03-20T10:08:42.768Z,59.4
2017-03-20T10:09:44.837Z,59.4
2017-03-20T10:10:46.899Z,59.4
2017-03-20T10:11:48.957Z,59.4
2017-03-20T10:12:51.025Z,59.4
2017-03-20T10:13:53.076Z,59.4
2017-03-20T10:14:55.130Z,59.4
2017-03-20T10:15:57.188Z,59.3
2017-03-20T10:16:59.248Z,59.3
2017-03-20T10:18:01.305Z,59.3
2017-03-20T10:19:03.368Z,59.3
2017-03-20T10:20:05.438Z,59.3
2017-03-20T10:21:07.489Z,59.3
2017-03-20T10:22:09.552Z,59.3
2017-03-20T10:23:11.609Z,59.3
2017-03-20T10:24:13.669Z,59.3
2017-03-20T10:25:15.731Z,59.3
2017-03-20T10:26:17.789Z,59.3
2017-03-20T10:27:19.861Z,59.3
2017-03-20T10:28:21.910Z,59.3
2017-03-20T10:29:23.969Z,59.3
2017-03-20T10:30:26.039Z,59.3
2017-03-20T10:31:28.100Z,59.3
2017-03-20T10:32:30.161Z,59.3
2017-03-20T10:33:32.212Z,59.3
2017-03-20T10:34:34.279Z,59.3
2017-03-20T10:35:36.335Z,59.3
2017-03-20T10:36:38.391Z,59.3
2017-03-20T10:37:40.567Z,59.3
2017-03-20T10:38:42.513Z,59.3
2017-03-20T10:39:44.575Z,59.3
2017-03-20T10:40:46.628Z,59.3
2017-03-20T10:41:48.714Z,59.3
2017-03-20T10:42:50.736Z,59.3
2017-03-20T10:43:52.798Z,59.3
2017-03-20T10:44:54.864Z,59.3
2017-03-20T10:45:56.934Z,59.3
2017-03-20T10:46:59.004Z,59.3
2017-03-20T10:48:01.062Z,59.2
2017-03-20T10:49:03.135Z,59.2
2017-03-20T10:50:05.194Z,59.2
2017-03-20T10:51:07.251Z,59.2
2017-03-20T10:52:09.316Z,59.2
2017-03-20T10:53:11.365Z,59.2
2017-03-20T10:54:13.516Z,59.2
2017-03-20T10:55:15.472Z,59.2
2017-03-20T10:56:17.546Z,59.2
2017-03-20T10:57:19.596Z,59.2
2017-03-20T10:58:21.656Z,59.2
2017-03-20T10:59:23.711Z,59.2
2017-03-20T11:00:25.768Z,59.2
2017-03-20T11:01:27.826Z,59.2
2017-03-20T11:02:29.878Z,59.2
2017-03-20T11:03:31.938Z,59.2
2017-03-20T11:04:33.998Z,59.2
2017-03-20T11:05:36.056Z,59.2
2017-03-20T11:06:38.114Z,59.2
2017-03-20T11:07:40.177Z,59.2
2017-03-20T11:08:42.229Z,59.2
2017-03-20T11:09:44.284Z,59.2
2017-03-20T11:10:46.347Z,59.2
2017-03-20T11:11:48.399Z,59.2
2017-03-20T11:12:50.457Z,59.2
2017-03-20T11:13:52.517Z,59.2
2017-03-20T11:14:54.567Z,59.2
2017-03-20T11:15:56.620Z,59.2
2017-03-20T11:16:58.679Z,59.2
2017-03-20T11:18:00.740Z,59.2
2017-03-20T11:19:02.802Z,59.2
2017-03-20T11:20:04.858Z,59.2
2017-03-20T11:21:07.115Z,59.2
2017-03-20T11:22:09.004Z,59.2
2017-03-20T11:23:11.029Z,59.2
2017-03-20T11:24:13.092Z,59.2
2017-03-20T11:25:15.155Z,59.2
2017-03-20T11:26:17.210Z,59.2
2017-03-20T11:27:19.270Z,59.2
2017-03-20T11:28:21.351Z,59.2
2017-03-20T11:29:23.402Z,59.2
2017-03-20T11:30:25.477Z,59.2
2017-03-20T11:31:27.521Z,59.1
2017-03-20T11:32:29.576Z,59.1
2017-03-20T11:33:31.631Z,59.1
2017-03-20T11:34:33.697Z,59.1
2017-03-20T11:35:35.748Z,59.1
2017-03-20T11:36:37.807Z,59.1
2017-03-20T11:37:39.853Z,59.1
2017-03-20T11:38:41.922Z,59.1
2017-03-20T11:39:43.973Z,59.1
2017-03-20T11:40:46.023Z,59.1
2017-03-20T11:41:48.072Z,59.1
2017-03-20T11:42:50.134Z,59.1
2017-03-20T11:43:52.192Z,59.1
2017-03-20T11:44:54.239Z,59
2017-03-20T11:45:56.308Z,59
2017-03-20T11:46:58.354Z,59
2017-03-20T11:48:00.403Z,59
2017-03-20T11:49:02.481Z,59
2017-03-20T11:50:04.525Z,59
2017-03-20T11:51:06.573Z,59
2017-03-20T11:52:08.634Z,59
2017-03-20T11:53:10.684Z,59
2017-03-20T11:54:12.736Z,59
2017-03-20T11:55:14.797Z,59
2017-03-20T11:56:16.853Z,59
2017-03-20T11:57:18.898Z,59
2017-03-20T11:58:20.955Z,59
2017-03-20T11:59:23.016Z,59
2017-03-20T12:00:25.068Z,59
2017-03-20T12:01:27.124Z,59
2017-03-20T12:02:29.183Z,59
2017-03-20T12:03:31.247Z,59
2017-03-20T12:04:33.296Z,59
2017-03-20T12:05:35.356Z,59
2017-03-20T12:06:37.415Z,59
2017-03-20T12:07:39.470Z,59
2017-03-20T12:08:41.521Z,59
2017-03-20T12:09:43.586Z,59
2017-03-20T12:10:45.645Z,59
2017-03-20T12:11:47.700Z,59
2017-03-20T12:12:49.754Z,59
2017-03-20T12:13:51.816Z,59
2017-03-20T12:14:53.877Z,59
2017-03-20T12:15:55.928Z,59
2017-03-20T12:16:57.990Z,59
2017-03-20T12:18:00.047Z,59
2017-03-20T12:19:02.109Z,59
2017-03-20T12:20:04.163Z,59
2017-03-20T12:21:06.217Z,59
2017-03-20T12:22:08.269Z,59
2017-03-20T12:23:10.329Z,59
2017-03-20T12:24:12.378Z,59
2017-03-20T12:25:14.437Z,59
2017-03-20T12:26:16.509Z,59
2017-03-20T12:27:18.571Z,59
2017-03-20T12:28:20.618Z,59
2017-03-20T12:29:22.681Z,59
2017-03-20T12:30:24.733Z,59
2017-03-20T12:31:26.778Z,59
2017-03-20T12:32:28.841Z,59
2017-03-20T12:33:30.901Z,59
2017-03-20T12:34:32.960Z,59
2017-03-20T12:35:35.017Z,59
2017-03-20T12:36:37.073Z,59
2017-03-20T12:37:39.130Z,59
2017-03-20T12:38:41.187Z,59
2017-03-20T12:39:43.256Z,59
2017-03-20T12:40:45.311Z,59
2017-03-20T12:41:47.366Z,59.1
2017-03-20T12:42:49.425Z,59
2017-03-20T12:43:51.541Z,59
2017-03-20T12:44:53.546Z,59
2017-03-20T12:45:55.592Z,59
2017-03-20T12:46:57.648Z,59
2017-03-20T12:47:59.712Z,59.1
2017-03-20T12:49:01.768Z,59
2017-03-20T12:50:03.821Z,59
2017-03-20T12:51:05.875Z,59
2017-03-20T12:52:07.942Z,59
2017-03-20T12:53:10.009Z,59
2017-03-20T12:54:12.061Z,59
2017-03-20T12:55:14.117Z,59
2017-03-20T12:56:16.187Z,59
2017-03-20T12:57:18.247Z,59
2017-03-20T12:58:20.308Z,59
2017-03-20T12:59:22.360Z,59
2017-03-20T13:00:24.425Z,59
2017-03-20T13:01:26.482Z,59
2017-03-20T13:02:28.532Z,59.1
2017-03-20T13:03:30.596Z,59
2017-03-20T13:04:32.653Z,59
2017-03-20T13:05:34.717Z,59.1
2017-03-20T13:06:36.779Z,59
2017-03-20T13:07:38.835Z,59.1
2017-03-20T13:08:40.904Z,59.1
2017-03-20T13:09:42.963Z,59.1
2017-03-20T13:10:45.024Z,59.1
2017-03-20T13:11:47.100Z,59.1
2017-03-20T13:12:49.176Z,59.1
2017-03-20T13:13:51.212Z,59.1
2017-03-20T13:14:53.267Z,59.1
2017-03-20T13:15:55.331Z,59.1
2017-03-20T13:16:57.405Z,59.1
2017-03-20T13:17:59.448Z,59.1
2017-03-20T13:19:01.509Z,59.1
2017-03-20T13:20:03.555Z,59.1
2017-03-20T13:21:05.633Z,59.1
2017-03-20T13:22:07.657Z,59.1
2017-03-20T13:23:09.715Z,59.1
2017-03-20T13:24:11.776Z,59.1
2017-03-20T13:25:13.848Z,59.1
2017-03-20T13:26:15.897Z,59.1
2017-03-20T13:27:17.967Z,59.1
2017-03-20T13:28:20.035Z,59.1
2017-03-20T13:29:22.076Z,59.1
2017-03-20T13:30:24.149Z,59.1
2017-03-20T13:31:26.198Z,59.1
2017-03-20T13:32:28.262Z,59.1
2017-03-20T13:33:30.316Z,59.1
2017-03-20T13:34:32.379Z,59.1
2017-03-20T13:35:34.444Z,59.1
2017-03-20T13:36:36.479Z,59.1
2017-03-20T13:37:38.547Z,59.1
2017-03-20T13:38:40.610Z,59.1
2017-03-20T13:39:42.685Z,59.1
2017-03-20T13:40:44.729Z,59.1
2017-03-20T13:41:46.803Z,59.1
2017-03-20T13:42:48.851Z,59.1
2017-03-20T13:43:50.902Z,59.1
2017-03-20T13:44:52.958Z,59.1
2017-03-20T13:45:55.024Z,59.1
2017-03-20T13:46:57.072Z,59.1
2017-03-20T13:47:59.133Z,59.1
2017-03-20T13:49:01.191Z,59.1
2017-03-20T13:50:03.254Z,59.1
2017-03-20T13:51:05.318Z,59.1
2017-03-20T13:52:07.378Z,59.1
2017-03-20T13:53:09.441Z,59.1
2017-03-20T13:54:11.491Z,59.1